Terminal Aerodrome Forecast
Issued by NWS

Home | Current Version | Previous Version | Text Only | Print | Product List | Glossary On
Versions: 1 2 3 4 5 6 7 8 9 10 11 12 13 14 15 16 17 18 19 20 21
000
FTUS43 KAPX 211100
TAFMBL
TAF
KMBL 211121Z 2112/2212 10004KT P6SM SCT035
     FM211300 10004KT P6SM BKN035
     FM211500 10005KT P6SM SCT025 BKN250
     FM220100 11003KT 2SM TSRA SCT011 OVC035CB
     FM220400 12003KT 3SM SHRA OVC025
      AMD LTD TO CLD VIS AND WIND=

USA.gov is the U.S. government's official web portal to all federal, state and local government web resources and services.